Terminal Aerodrome Forecast
Issued by NWS

Home | Current Version | Previous Version | Text Only | Print | Product List | Glossary Off
Versions: 1 2 3 4 5 6 7 8 9 10 11 12 13 14

000
FTUS43 KBIS 242337
TAFJMS
TAF
KJMS 242337Z 2500/2524 15018G27KT P6SM SCT050
     FM250800 14013G21KT P6SM VCSH BKN100
     FM251700 21014G22KT P6SM SCT070=

USA.gov is the U.S. government's official web portal to all federal, state and local government web resources and services.